sensor_id;sensor_type;location;lat;lon;timestamp;temperature;humidity
78704;SHT31;68034;51.966;5.676;2023-03-14T00:00:14;14.9;67.9
78704;SHT31;68034;51.966;5.676;2023-03-14T00:02:43;14.8;70.1
78704;SHT31;68034;51.966;5.676;2023-03-14T00:05:11;14.5;71.1
78704;SHT31;68034;51.966;5.676;2023-03-14T00:07:40;14.2;72.4
78704;SHT31;68034;51.966;5.676;2023-03-14T00:10:11;13.9;73.5
78704;SHT31;68034;51.966;5.676;2023-03-14T00:12:41;13.6;74.6
78704;SHT31;68034;51.966;5.676;2023-03-14T00:15:14;13.4;75.9
78704;SHT31;68034;51.966;5.676;2023-03-14T00:17:43;13.3;75.2
78704;SHT31;68034;51.966;5.676;2023-03-14T00:20:13;13.2;75.2
78704;SHT31;68034;51.966;5.676;2023-03-14T00:22:42;13.1;74.3
78704;SHT31;68034;51.966;5.676;2023-03-14T00:25:12;13.0;74.4
78704;SHT31;68034;51.966;5.676;2023-03-14T00:27:40;12.9;75.5
78704;SHT31;68034;51.966;5.676;2023-03-14T00:30:10;12.9;75.3
78704;SHT31;68034;51.966;5.676;2023-03-14T00:32:39;12.9;75.3
78704;SHT31;68034;51.966;5.676;2023-03-14T00:35:08;12.9;74.7
78704;SHT31;68034;51.966;5.676;2023-03-14T00:37:37;12.9;74.7
78704;SHT31;68034;51.966;5.676;2023-03-14T00:40:07;12.8;74.6
78704;SHT31;68034;51.966;5.676;2023-03-14T00:42:37;12.8;74.0
78704;SHT31;68034;51.966;5.676;2023-03-14T00:45:06;12.7;73.6
78704;SHT31;68034;51.966;5.676;2023-03-14T00:47:36;12.6;73.3
78704;SHT31;68034;51.966;5.676;2023-03-14T00:50:06;12.6;71.9
78704;SHT31;68034;51.966;5.676;2023-03-14T00:52:35;12.5;71.9
78704;SHT31;68034;51.966;5.676;2023-03-14T00:55:04;12.4;72.1
78704;SHT31;68034;51.966;5.676;2023-03-14T00:57:33;12.3;72.9
78704;SHT31;68034;51.966;5.676;2023-03-14T01:00:09;12.2;73.0
78704;SHT31;68034;51.966;5.676;2023-03-14T01:02:39;12.1;72.0
78704;SHT31;68034;51.966;5.676;2023-03-14T01:05:08;12.0;73.0
78704;SHT31;68034;51.966;5.676;2023-03-14T01:07:38;12.0;72.6
78704;SHT31;68034;51.966;5.676;2023-03-14T01:10:08;11.9;73.3
78704;SHT31;68034;51.966;5.676;2023-03-14T01:12:37;11.9;73.3
78704;SHT31;68034;51.966;5.676;2023-03-14T01:15:07;11.9;74.0
78704;SHT31;68034;51.966;5.676;2023-03-14T01:17:36;11.9;74.1
78704;SHT31;68034;51.966;5.676;2023-03-14T01:20:06;11.8;73.4
78704;SHT31;68034;51.966;5.676;2023-03-14T01:22:38;11.8;74.5
78704;SHT31;68034;51.966;5.676;2023-03-14T01:25:09;11.8;74.6
78704;SHT31;68034;51.966;5.676;2023-03-14T01:27:40;11.8;76.0
78704;SHT31;68034;51.966;5.676;2023-03-14T01:30:11;11.8;76.5
78704;SHT31;68034;51.966;5.676;2023-03-14T01:32:42;11.8;75.0
78704;SHT31;68034;51.966;5.676;2023-03-14T01:35:11;11.8;74.7
78704;SHT31;68034;51.966;5.676;2023-03-14T01:37:40;11.8;74.3
78704;SHT31;68034;51.966;5.676;2023-03-14T01:40:11;11.8;75.1
78704;SHT31;68034;51.966;5.676;2023-03-14T01:42:47;11.7;75.2
78704;SHT31;68034;51.966;5.676;2023-03-14T01:46:36;11.7;74.3
78704;SHT31;68034;51.966;5.676;2023-03-14T01:49:10;11.7;74.2
78704;SHT31;68034;51.966;5.676;2023-03-14T01:51:44;11.7;74.6
78704;SHT31;68034;51.966;5.676;2023-03-14T01:54:21;11.7;75.4
78704;SHT31;68034;51.966;5.676;2023-03-14T01:56:54;11.6;76.7
78704;SHT31;68034;51.966;5.676;2023-03-14T01:59:26;11.6;77.5
78704;SHT31;68034;51.966;5.676;2023-03-14T02:01:55;11.6;78.5
78704;SHT31;68034;51.966;5.676;2023-03-14T02:04:29;11.6;78.4
78704;SHT31;68034;51.966;5.676;2023-03-14T02:07:04;11.6;78.4
78704;SHT31;68034;51.966;5.676;2023-03-14T02:09:39;11.6;78.5
78704;SHT31;68034;51.966;5.676;2023-03-14T02:12:08;11.6;78.5
78704;SHT31;68034;51.966;5.676;2023-03-14T02:14:37;11.6;78.5
78704;SHT31;68034;51.966;5.676;2023-03-14T02:17:07;11.6;78.4
78704;SHT31;68034;51.966;5.676;2023-03-14T02:19:48;11.6;78.7
78704;SHT31;68034;51.966;5.676;2023-03-14T02:22:19;11.6;78.7
78704;SHT31;68034;51.966;5.676;2023-03-14T02:24:57;11.6;79.1
78704;SHT31;68034;51.966;5.676;2023-03-14T02:27:28;11.6;79.1
78704;SHT31;68034;51.966;5.676;2023-03-14T02:30:00;11.6;79.3
78704;SHT31;68034;51.966;5.676;2023-03-14T02:32:31;11.6;79.0
78704;SHT31;68034;51.966;5.676;2023-03-14T02:35:04;11.6;79.0
78704;SHT31;68034;51.966;5.676;2023-03-14T02:37:37;11.6;78.4
78704;SHT31;68034;51.966;5.676;2023-03-14T02:40:08;11.6;78.8
78704;SHT31;68034;51.966;5.676;2023-03-14T02:42:37;11.6;78.9
78704;SHT31;68034;51.966;5.676;2023-03-14T02:45:33;11.6;78.8
78704;SHT31;68034;51.966;5.676;2023-03-14T02:48:06;11.6;78.5
78704;SHT31;68034;51.966;5.676;2023-03-14T02:50:36;11.6;78.0
78704;SHT31;68034;51.966;5.676;2023-03-14T02:53:04;11.6;77.8
78704;SHT31;68034;51.966;5.676;2023-03-14T02:55:33;11.6;77.5
78704;SHT31;68034;51.966;5.676;2023-03-14T02:58:02;11.6;77.3
78704;SHT31;68034;51.966;5.676;2023-03-14T03:00:31;11.6;76.6
78704;SHT31;68034;51.966;5.676;2023-03-14T03:03:00;11.6;76.2
78704;SHT31;68034;51.966;5.676;2023-03-14T03:05:29;11.6;76.2
78704;SHT31;68034;51.966;5.676;2023-03-14T03:07:58;11.6;75.8
78704;SHT31;68034;51.966;5.676;2023-03-14T03:10:28;11.6;76.4
78704;SHT31;68034;51.966;5.676;2023-03-14T03:12:56;11.6;76.0
78704;SHT31;68034;51.966;5.676;2023-03-14T03:15:26;11.5;75.9
78704;SHT31;68034;51.966;5.676;2023-03-14T03:17:57;11.5;75.8
78704;SHT31;68034;51.966;5.676;2023-03-14T03:20:26;11.5;75.6
78704;SHT31;68034;51.966;5.676;2023-03-14T03:22:55;11.5;75.7
78704;SHT31;68034;51.966;5.676;2023-03-14T03:25:23;11.4;75.8
78704;SHT31;68034;51.966;5.676;2023-03-14T03:27:53;11.4;75.7
78704;SHT31;68034;51.966;5.676;2023-03-14T03:30:24;11.4;75.3
78704;SHT31;68034;51.966;5.676;2023-03-14T03:32:55;11.4;75.7
78704;SHT31;68034;51.966;5.676;2023-03-14T03:35:24;11.4;75.8
78704;SHT31;68034;51.966;5.676;2023-03-14T03:37:52;11.4;75.7
78704;SHT31;68034;51.966;5.676;2023-03-14T03:40:23;11.3;75.5
78704;SHT31;68034;51.966;5.676;2023-03-14T03:42:52;11.3;75.4
78704;SHT31;68034;51.966;5.676;2023-03-14T03:45:22;11.3;75.4
78704;SHT31;68034;51.966;5.676;2023-03-14T03:47:51;11.3;75.5
78704;SHT31;68034;51.966;5.676;2023-03-14T03:50:20;11.3;75.6
78704;SHT31;68034;51.966;5.676;2023-03-14T03:52:53;11.3;76.3
78704;SHT31;68034;51.966;5.676;2023-03-14T03:55:24;11.3;75.6
78704;SHT31;68034;51.966;5.676;2023-03-14T03:57:54;11.3;75.5
78704;SHT31;68034;51.966;5.676;2023-03-14T04:00:23;11.3;75.4
78704;SHT31;68034;51.966;5.676;2023-03-14T04:02:52;11.2;74.9
78704;SHT31;68034;51.966;5.676;2023-03-14T04:05:21;11.3;75.2
78704;SHT31;68034;51.966;5.676;2023-03-14T04:07:52;11.3;74.7
78704;SHT31;68034;51.966;5.676;2023-03-14T04:10:22;11.3;74.7
78704;SHT31;68034;51.966;5.676;2023-03-14T04:12:50;11.3;74.6
78704;SHT31;68034;51.966;5.676;2023-03-14T04:15:19;11.3;74.5
78704;SHT31;68034;51.966;5.676;2023-03-14T04:17:50;11.2;74.4
78704;SHT31;68034;51.966;5.676;2023-03-14T04:20:19;11.2;74.4
78704;SHT31;68034;51.966;5.676;2023-03-14T04:22:48;11.2;74.6
78704;SHT31;68034;51.966;5.676;2023-03-14T04:25:19;11.1;74.7
78704;SHT31;68034;51.966;5.676;2023-03-14T04:27:48;11.1;74.9
78704;SHT31;68034;51.966;5.676;2023-03-14T04:30:17;11.1;75.2
78704;SHT31;68034;51.966;5.676;2023-03-14T04:32:46;11.1;75.1
78704;SHT31;68034;51.966;5.676;2023-03-14T04:35:15;11.1;74.9
78704;SHT31;68034;51.966;5.676;2023-03-14T04:37:43;11.1;74.9
78704;SHT31;68034;51.966;5.676;2023-03-14T04:40:15;11.1;75.7
78704;SHT31;68034;51.966;5.676;2023-03-14T04:42:44;11.1;75.2
78704;SHT31;68034;51.966;5.676;2023-03-14T04:45:13;11.1;75.3
78704;SHT31;68034;51.966;5.676;2023-03-14T04:47:42;11.1;75.7
78704;SHT31;68034;51.966;5.676;2023-03-14T04:50:11;11.1;75.3
78704;SHT31;68034;51.966;5.676;2023-03-14T04:52:40;11.2;74.9
78704;SHT31;68034;51.966;5.676;2023-03-14T04:55:09;11.2;75.3
78704;SHT31;68034;51.966;5.676;2023-03-14T04:57:37;11.2;75.0
78704;SHT31;68034;51.966;5.676;2023-03-14T05:00:07;11.2;75.2
78704;SHT31;68034;51.966;5.676;2023-03-14T05:02:36;11.2;75.0
78704;SHT31;68034;51.966;5.676;2023-03-14T05:05:08;11.2;75.6
78704;SHT31;68034;51.966;5.676;2023-03-14T05:07:37;11.3;74.8
78704;SHT31;68034;51.966;5.676;2023-03-14T05:10:06;11.3;74.7
78704;SHT31;68034;51.966;5.676;2023-03-14T05:12:35;11.3;74.7
78704;SHT31;68034;51.966;5.676;2023-03-14T05:15:04;11.3;74.7
78704;SHT31;68034;51.966;5.676;2023-03-14T05:17:34;11.3;74.5
78704;SHT31;68034;51.966;5.676;2023-03-14T05:20:04;11.3;74.4
78704;SHT31;68034;51.966;5.676;2023-03-14T05:22:36;11.3;74.4
78704;SHT31;68034;51.966;5.676;2023-03-14T05:25:05;11.3;74.9
78704;SHT31;68034;51.966;5.676;2023-03-14T05:27:34;11.3;75.0
78704;SHT31;68034;51.966;5.676;2023-03-14T05:30:04;11.3;74.9
78704;SHT31;68034;51.966;5.676;2023-03-14T05:32:33;11.3;75.3
78704;SHT31;68034;51.966;5.676;2023-03-14T05:35:02;11.4;75.2
78704;SHT31;68034;51.966;5.676;2023-03-14T05:37:31;11.4;75.2
78704;SHT31;68034;51.966;5.676;2023-03-14T05:40:01;11.4;75.4
78704;SHT31;68034;51.966;5.676;2023-03-14T05:42:31;11.4;75.6
78704;SHT31;68034;51.966;5.676;2023-03-14T05:45:00;11.4;76.0
78704;SHT31;68034;51.966;5.676;2023-03-14T05:47:28;11.4;76.2
78704;SHT31;68034;51.966;5.676;2023-03-14T05:49:57;11.4;76.7
78704;SHT31;68034;51.966;5.676;2023-03-14T05:52:26;11.4;76.9
78704;SHT31;68034;51.966;5.676;2023-03-14T05:54:54;11.4;77.0
78704;SHT31;68034;51.966;5.676;2023-03-14T05:57:23;11.4;76.9
78704;SHT31;68034;51.966;5.676;2023-03-14T05:59:52;11.4;77.0
78704;SHT31;68034;51.966;5.676;2023-03-14T06:02:21;11.3;76.9
78704;SHT31;68034;51.966;5.676;2023-03-14T06:04:52;11.3;76.9
78704;SHT31;68034;51.966;5.676;2023-03-14T06:07:21;11.3;77.3
78704;SHT31;68034;51.966;5.676;2023-03-14T06:09:49;11.3;77.6
78704;SHT31;68034;51.966;5.676;2023-03-14T06:12:18;11.3;77.6
78704;SHT31;68034;51.966;5.676;2023-03-14T06:14:47;11.3;77.8
78704;SHT31;68034;51.966;5.676;2023-03-14T06:17:16;11.3;77.9
78704;SHT31;68034;51.966;5.676;2023-03-14T06:19:44;11.3;78.1
78704;SHT31;68034;51.966;5.676;2023-03-14T06:22:13;11.3;78.3
78704;SHT31;68034;51.966;5.676;2023-03-14T06:24:42;11.3;78.6
78704;SHT31;68034;51.966;5.676;2023-03-14T06:27:11;11.2;78.6
78704;SHT31;68034;51.966;5.676;2023-03-14T06:29:39;11.2;79.0
78704;SHT31;68034;51.966;5.676;2023-03-14T06:32:10;11.2;79.4
78704;SHT31;68034;51.966;5.676;2023-03-14T06:34:39;11.2;79.7
78704;SHT31;68034;51.966;5.676;2023-03-14T06:37:07;11.3;79.5
78704;SHT31;68034;51.966;5.676;2023-03-14T06:39:39;11.3;79.1
78704;SHT31;68034;51.966;5.676;2023-03-14T06:42:08;11.3;79.2
78704;SHT31;68034;51.966;5.676;2023-03-14T06:44:37;11.3;79.1
78704;SHT31;68034;51.966;5.676;2023-03-14T06:47:08;11.3;79.2
78704;SHT31;68034;51.966;5.676;2023-03-14T06:49:37;11.3;79.3
78704;SHT31;68034;51.966;5.676;2023-03-14T06:52:05;11.3;79.2
78704;SHT31;68034;51.966;5.676;2023-03-14T06:54:34;11.3;79.4
78704;SHT31;68034;51.966;5.676;2023-03-14T06:57:03;11.3;79.7
78704;SHT31;68034;51.966;5.676;2023-03-14T06:59:32;11.3;79.8
78704;SHT31;68034;51.966;5.676;2023-03-14T07:02:00;11.3;80.1
78704;SHT31;68034;51.966;5.676;2023-03-14T07:04:29;11.3;79.9
78704;SHT31;68034;51.966;5.676;2023-03-14T07:06:58;11.3;80.1
78704;SHT31;68034;51.966;5.676;2023-03-14T07:09:26;11.3;80.3
78704;SHT31;68034;51.966;5.676;2023-03-14T07:11:55;11.3;80.6
78704;SHT31;68034;51.966;5.676;2023-03-14T07:14:24;11.3;78.3
78704;SHT31;68034;51.966;5.676;2023-03-14T07:16:53;11.2;78.3
78704;SHT31;68034;51.966;5.676;2023-03-14T07:19:22;11.2;78.5
78704;SHT31;68034;51.966;5.676;2023-03-14T07:21:50;11.1;78.7
78704;SHT31;68034;51.966;5.676;2023-03-14T07:24:19;11.1;78.1
78704;SHT31;68034;51.966;5.676;2023-03-14T07:26:48;11.0;78.2
78704;SHT31;68034;51.966;5.676;2023-03-14T07:29:19;11.0;77.2
78704;SHT31;68034;51.966;5.676;2023-03-14T07:31:48;11.0;76.5
78704;SHT31;68034;51.966;5.676;2023-03-14T07:34:17;10.9;77.6
78704;SHT31;68034;51.966;5.676;2023-03-14T07:36:46;10.9;76.9
78704;SHT31;68034;51.966;5.676;2023-03-14T07:39:14;10.9;77.2
78704;SHT31;68034;51.966;5.676;2023-03-14T07:41:45;10.8;77.4
78704;SHT31;68034;51.966;5.676;2023-03-14T07:44:14;10.8;77.7
78704;SHT31;68034;51.966;5.676;2023-03-14T07:46:43;10.7;77.5
78704;SHT31;68034;51.966;5.676;2023-03-14T07:49:15;10.7;78.0
78704;SHT31;68034;51.966;5.676;2023-03-14T07:51:43;10.6;78.1
78704;SHT31;68034;51.966;5.676;2023-03-14T07:54:14;10.6;78.4
78704;SHT31;68034;51.966;5.676;2023-03-14T07:56:43;10.6;78.5
78704;SHT31;68034;51.966;5.676;2023-03-14T07:59:11;10.5;78.7
78704;SHT31;68034;51.966;5.676;2023-03-14T08:01:40;10.5;78.7
78704;SHT31;68034;51.966;5.676;2023-03-14T08:04:09;10.5;78.7
78704;SHT31;68034;51.966;5.676;2023-03-14T08:06:38;10.5;78.7
78704;SHT31;68034;51.966;5.676;2023-03-14T08:09:07;10.4;78.9
78704;SHT31;68034;51.966;5.676;2023-03-14T08:11:36;10.4;79.3
78704;SHT31;68034;51.966;5.676;2023-03-14T08:14:07;10.4;79.7
78704;SHT31;68034;51.966;5.676;2023-03-14T08:16:37;10.4;79.5
78704;SHT31;68034;51.966;5.676;2023-03-14T08:19:06;10.4;79.3
78704;SHT31;68034;51.966;5.676;2023-03-14T08:21:36;10.4;79.3
78704;SHT31;68034;51.966;5.676;2023-03-14T08:24:05;10.5;79.9
78704;SHT31;68034;51.966;5.676;2023-03-14T08:26:34;10.5;79.2
78704;SHT31;68034;51.966;5.676;2023-03-14T08:29:03;10.5;78.1
78704;SHT31;68034;51.966;5.676;2023-03-14T08:31:32;10.5;77.4
78704;SHT31;68034;51.966;5.676;2023-03-14T08:34:01;10.5;77.1
78704;SHT31;68034;51.966;5.676;2023-03-14T08:36:31;10.5;77.0
78704;SHT31;68034;51.966;5.676;2023-03-14T08:38:59;10.4;76.7
78704;SHT31;68034;51.966;5.676;2023-03-14T08:41:30;10.4;76.4
78704;SHT31;68034;51.966;5.676;2023-03-14T08:43:59;10.4;75.2
78704;SHT31;68034;51.966;5.676;2023-03-14T08:46:27;10.3;74.6
78704;SHT31;68034;51.966;5.676;2023-03-14T08:48:56;10.2;73.9
78704;SHT31;68034;51.966;5.676;2023-03-14T08:51:25;10.1;74.9
78704;SHT31;68034;51.966;5.676;2023-03-14T08:53:54;10.1;75.2
78704;SHT31;68034;51.966;5.676;2023-03-14T08:56:23;10.0;75.8
78704;SHT31;68034;51.966;5.676;2023-03-14T08:58:51;10.0;75.4
78704;SHT31;68034;51.966;5.676;2023-03-14T09:01:20;10.0;76.2
78704;SHT31;68034;51.966;5.676;2023-03-14T09:03:51;10.0;76.8
78704;SHT31;68034;51.966;5.676;2023-03-14T09:06:20;10.0;76.5
78704;SHT31;68034;51.966;5.676;2023-03-14T09:08:51;10.0;76.0
78704;SHT31;68034;51.966;5.676;2023-03-14T09:11:20;10.0;77.0
78704;SHT31;68034;51.966;5.676;2023-03-14T09:13:49;10.0;76.4
78704;SHT31;68034;51.966;5.676;2023-03-14T09:16:19;10.0;76.3
78704;SHT31;68034;51.966;5.676;2023-03-14T09:18:49;10.0;75.4
78704;SHT31;68034;51.966;5.676;2023-03-14T09:21:20;10.0;76.0
78704;SHT31;68034;51.966;5.676;2023-03-14T09:23:49;10.0;75.4
78704;SHT31;68034;51.966;5.676;2023-03-14T09:26:18;9.9;74.0
78704;SHT31;68034;51.966;5.676;2023-03-14T09:28:46;9.9;75.4
78704;SHT31;68034;51.966;5.676;2023-03-14T09:31:15;9.9;75.4
78704;SHT31;68034;51.966;5.676;2023-03-14T09:33:44;9.9;75.0
78704;SHT31;68034;51.966;5.676;2023-03-14T09:36:13;9.9;76.2
78704;SHT31;68034;51.966;5.676;2023-03-14T09:38:42;9.9;75.3
78704;SHT31;68034;51.966;5.676;2023-03-14T09:41:17;9.9;75.6
78704;SHT31;68034;51.966;5.676;2023-03-14T09:43:48;9.9;75.3
78704;SHT31;68034;51.966;5.676;2023-03-14T09:46:19;9.9;74.9
78704;SHT31;68034;51.966;5.676;2023-03-14T09:48:49;9.9;73.8
78704;SHT31;68034;51.966;5.676;2023-03-14T09:51:20;9.9;73.9
78704;SHT31;68034;51.966;5.676;2023-03-14T09:53:50;9.9;73.5
78704;SHT31;68034;51.966;5.676;2023-03-14T09:56:23;9.8;72.8
78704;SHT31;68034;51.966;5.676;2023-03-14T09:58:57;9.9;73.9
78704;SHT31;68034;51.966;5.676;2023-03-14T10:01:29;9.8;72.7
78704;SHT31;68034;51.966;5.676;2023-03-14T10:04:04;9.8;71.2
78704;SHT31;68034;51.966;5.676;2023-03-14T10:06:34;9.9;74.3
78704;SHT31;68034;51.966;5.676;2023-03-14T10:09:04;9.9;74.5
78704;SHT31;68034;51.966;5.676;2023-03-14T10:11:37;9.9;73.6
78704;SHT31;68034;51.966;5.676;2023-03-14T10:14:09;10.0;71.3
78704;SHT31;68034;51.966;5.676;2023-03-14T10:16:42;10.0;71.1
78704;SHT31;68034;51.966;5.676;2023-03-14T10:19:13;10.0;71.3
78704;SHT31;68034;51.966;5.676;2023-03-14T10:21:44;10.1;72.3
78704;SHT31;68034;51.966;5.676;2023-03-14T10:24:22;10.1;70.7
78704;SHT31;68034;51.966;5.676;2023-03-14T10:26:58;10.1;71.2
78704;SHT31;68034;51.966;5.676;2023-03-14T10:29:29;10.2;71.6
78704;SHT31;68034;51.966;5.676;2023-03-14T10:32:02;10.2;70.0
78704;SHT31;68034;51.966;5.676;2023-03-14T10:34:34;10.3;69.5
78704;SHT31;68034;51.966;5.676;2023-03-14T10:37:12;10.3;70.5
78704;SHT31;68034;51.966;5.676;2023-03-14T10:39:46;10.4;70.5
78704;SHT31;68034;51.966;5.676;2023-03-14T10:42:23;10.4;70.3
78704;SHT31;68034;51.966;5.676;2023-03-14T10:44:59;10.5;69.2
78704;SHT31;68034;51.966;5.676;2023-03-14T10:47:28;10.5;68.8
78704;SHT31;68034;51.966;5.676;2023-03-14T10:50:22;10.5;69.1
78704;SHT31;68034;51.966;5.676;2023-03-14T10:52:53;10.5;69.8
78704;SHT31;68034;51.966;5.676;2023-03-14T10:55:26;10.5;70.2
78704;SHT31;68034;51.966;5.676;2023-03-14T10:57:55;10.4;71.3
78704;SHT31;68034;51.966;5.676;2023-03-14T11:00:24;10.4;70.9
78704;SHT31;68034;51.966;5.676;2023-03-14T11:03:13;10.4;73.2
78704;SHT31;68034;51.966;5.676;2023-03-14T11:05:48;10.4;72.9
78704;SHT31;68034;51.966;5.676;2023-03-14T11:08:25;10.4;74.1
78704;SHT31;68034;51.966;5.676;2023-03-14T11:11:06;10.4;71.2
78704;SHT31;68034;51.966;5.676;2023-03-14T11:13:40;10.4;72.5
78704;SHT31;68034;51.966;5.676;2023-03-14T11:16:20;10.5;71.6
78704;SHT31;68034;51.966;5.676;2023-03-14T11:19:31;10.5;69.4
78704;SHT31;68034;51.966;5.676;2023-03-14T11:22:10;10.6;69.6
78704;SHT31;68034;51.966;5.676;2023-03-14T11:24:52;10.6;67.5
78704;SHT31;68034;51.966;5.676;2023-03-14T11:27:33;10.6;66.7
78704;SHT31;68034;51.966;5.676;2023-03-14T11:30:16;10.6;68.3
78704;SHT31;68034;51.966;5.676;2023-03-14T11:32:50;10.7;66.4
78704;SHT31;68034;51.966;5.676;2023-03-14T11:35:26;10.8;66.2
78704;SHT31;68034;51.966;5.676;2023-03-14T11:38:05;10.8;66.2
78704;SHT31;68034;51.966;5.676;2023-03-14T11:40:39;10.8;64.9
78704;SHT31;68034;51.966;5.676;2023-03-14T11:43:14;10.9;65.8
78704;SHT31;68034;51.966;5.676;2023-03-14T11:45:48;10.9;63.9
78704;SHT31;68034;51.966;5.676;2023-03-14T11:48:24;11.0;63.2
78704;SHT31;68034;51.966;5.676;2023-03-14T11:50:58;11.0;64.3
78704;SHT31;68034;51.966;5.676;2023-03-14T11:53:39;11.1;65.0
78704;SHT31;68034;51.966;5.676;2023-03-14T11:56:16;11.1;64.2
78704;SHT31;68034;51.966;5.676;2023-03-14T11:58:52;11.2;64.6
78704;SHT31;68034;51.966;5.676;2023-03-14T12:01:36;11.3;62.5
78704;SHT31;68034;51.966;5.676;2023-03-14T12:04:18;11.4;63.2
78704;SHT31;68034;51.966;5.676;2023-03-14T12:06:50;11.5;60.5
78704;SHT31;68034;51.966;5.676;2023-03-14T12:09:21;11.5;59.4
78704;SHT31;68034;51.966;5.676;2023-03-14T12:11:54;11.6;62.1
78704;SHT31;68034;51.966;5.676;2023-03-14T12:14:27;11.7;62.1
78704;SHT31;68034;51.966;5.676;2023-03-14T12:17:03;11.8;60.5
78704;SHT31;68034;51.966;5.676;2023-03-14T12:19:35;12.1;58.6
78704;SHT31;68034;51.966;5.676;2023-03-14T12:22:28;12.4;57.8
78704;SHT31;68034;51.966;5.676;2023-03-14T12:25:02;12.7;55.8
78704;SHT31;68034;51.966;5.676;2023-03-14T12:30:35;13.1;54.0
78704;SHT31;68034;51.966;5.676;2023-03-14T12:37:00;13.2;53.1
78704;SHT31;68034;51.966;5.676;2023-03-14T12:39:40;13.3;48.0
78704;SHT31;68034;51.966;5.676;2023-03-14T12:42:14;13.4;50.2
78704;SHT31;68034;51.966;5.676;2023-03-14T12:44:49;13.4;49.2
78704;SHT31;68034;51.966;5.676;2023-03-14T12:48:04;13.5;50.6
78704;SHT31;68034;51.966;5.676;2023-03-14T12:50:41;13.7;51.0
78704;SHT31;68034;51.966;5.676;2023-03-14T12:53:40;13.9;49.7
78704;SHT31;68034;51.966;5.676;2023-03-14T12:56:24;14.1;47.1
78704;SHT31;68034;51.966;5.676;2023-03-14T13:03:53;14.5;46.1
78704;SHT31;68034;51.966;5.676;2023-03-14T13:06:52;14.6;45.5
78704;SHT31;68034;51.966;5.676;2023-03-14T13:12:39;14.7;44.8
78704;SHT31;68034;51.966;5.676;2023-03-14T13:15:18;14.8;43.6
78704;SHT31;68034;51.966;5.676;2023-03-14T13:17:52;14.9;44.6
78704;SHT31;68034;51.966;5.676;2023-03-14T13:20:28;15.0;44.8
78704;SHT31;68034;51.966;5.676;2023-03-14T13:23:00;15.1;44.1
78704;SHT31;68034;51.966;5.676;2023-03-14T13:25:33;15.3;42.0
78704;SHT31;68034;51.966;5.676;2023-03-14T13:28:03;15.5;43.8
78704;SHT31;68034;51.966;5.676;2023-03-14T13:30:41;15.7;41.2
78704;SHT31;68034;51.966;5.676;2023-03-14T13:33:15;15.9;41.9
78704;SHT31;68034;51.966;5.676;2023-03-14T13:35:47;16.1;41.0
78704;SHT31;68034;51.966;5.676;2023-03-14T13:38:21;16.2;39.9
78704;SHT31;68034;51.966;5.676;2023-03-14T13:40:51;16.3;37.8
78704;SHT31;68034;51.966;5.676;2023-03-14T13:43:29;16.4;38.7
78704;SHT31;68034;51.966;5.676;2023-03-14T13:46:04;16.5;39.0
78704;SHT31;68034;51.966;5.676;2023-03-14T13:48:42;16.5;39.1
78704;SHT31;68034;51.966;5.676;2023-03-14T13:51:12;16.6;38.0
78704;SHT31;68034;51.966;5.676;2023-03-14T13:53:46;16.5;36.5
78704;SHT31;68034;51.966;5.676;2023-03-14T13:56:15;16.5;39.0
78704;SHT31;68034;51.966;5.676;2023-03-14T13:58:46;16.4;37.7
78704;SHT31;68034;51.966;5.676;2023-03-14T14:01:18;16.5;37.1
78704;SHT31;68034;51.966;5.676;2023-03-14T14:03:50;16.5;35.7
78704;SHT31;68034;51.966;5.676;2023-03-14T14:06:29;16.5;36.3
78704;SHT31;68034;51.966;5.676;2023-03-14T14:09:02;16.4;36.3
78704;SHT31;68034;51.966;5.676;2023-03-14T14:11:42;16.3;38.3
78704;SHT31;68034;51.966;5.676;2023-03-14T14:14:16;16.2;38.4
78704;SHT31;68034;51.966;5.676;2023-03-14T14:16:47;16.2;40.2
78704;SHT31;68034;51.966;5.676;2023-03-14T14:19:19;16.4;39.4
78704;SHT31;68034;51.966;5.676;2023-03-14T14:21:51;16.5;36.5
78704;SHT31;68034;51.966;5.676;2023-03-14T14:24:22;16.7;36.0
78704;SHT31;68034;51.966;5.676;2023-03-14T14:26:53;16.9;35.3
78704;SHT31;68034;51.966;5.676;2023-03-14T14:29:26;17.0;37.0
78704;SHT31;68034;51.966;5.676;2023-03-14T14:32:08;17.1;38.1
78704;SHT31;68034;51.966;5.676;2023-03-14T14:34:41;17.2;36.6
78704;SHT31;68034;51.966;5.676;2023-03-14T14:37:22;17.2;35.7
78704;SHT31;68034;51.966;5.676;2023-03-14T14:39:53;17.2;36.7
78704;SHT31;68034;51.966;5.676;2023-03-14T14:42:27;17.1;35.7
78704;SHT31;68034;51.966;5.676;2023-03-14T14:44:57;17.0;38.1
78704;SHT31;68034;51.966;5.676;2023-03-14T14:47:28;16.8;37.7
78704;SHT31;68034;51.966;5.676;2023-03-14T14:50:00;16.6;36.0
78704;SHT31;68034;51.966;5.676;2023-03-14T14:52:36;16.4;39.6
78704;SHT31;68034;51.966;5.676;2023-03-14T14:55:17;16.1;39.0
78704;SHT31;68034;51.966;5.676;2023-03-14T14:57:51;15.9;37.5
78704;SHT31;68034;51.966;5.676;2023-03-14T15:00:22;15.8;38.3
78704;SHT31;68034;51.966;5.676;2023-03-14T15:02:55;15.6;37.2
78704;SHT31;68034;51.966;5.676;2023-03-14T15:05:28;15.4;37.5
78704;SHT31;68034;51.966;5.676;2023-03-14T15:08:02;15.2;36.2
78704;SHT31;68034;51.966;5.676;2023-03-14T15:10:31;15.1;36.9
78704;SHT31;68034;51.966;5.676;2023-03-14T15:12:59;14.9;36.7
78704;SHT31;68034;51.966;5.676;2023-03-14T15:15:28;14.8;39.8
78704;SHT31;68034;51.966;5.676;2023-03-14T15:17:57;14.7;35.3
78704;SHT31;68034;51.966;5.676;2023-03-14T15:20:26;14.5;36.7
78704;SHT31;68034;51.966;5.676;2023-03-14T15:22:56;14.4;39.1
78704;SHT31;68034;51.966;5.676;2023-03-14T15:25:25;14.3;39.2
78704;SHT31;68034;51.966;5.676;2023-03-14T15:27:54;14.2;39.4
78704;SHT31;68034;51.966;5.676;2023-03-14T15:30:23;14.1;39.7
78704;SHT31;68034;51.966;5.676;2023-03-14T15:32:51;14.1;39.4
78704;SHT31;68034;51.966;5.676;2023-03-14T15:35:21;14.0;40.0
78704;SHT31;68034;51.966;5.676;2023-03-14T15:37:50;14.0;39.8
78704;SHT31;68034;51.966;5.676;2023-03-14T15:40:24;13.9;39.2
78704;SHT31;68034;51.966;5.676;2023-03-14T15:42:53;13.9;39.2
78704;SHT31;68034;51.966;5.676;2023-03-14T15:45:22;13.9;39.9
78704;SHT31;68034;51.966;5.676;2023-03-14T15:47:51;13.9;39.6
78704;SHT31;68034;51.966;5.676;2023-03-14T15:50:19;13.8;40.0
78704;SHT31;68034;51.966;5.676;2023-03-14T15:52:48;13.8;39.6
78704;SHT31;68034;51.966;5.676;2023-03-14T15:55:17;13.7;38.9
78704;SHT31;68034;51.966;5.676;2023-03-14T15:57:46;13.7;38.4
78704;SHT31;68034;51.966;5.676;2023-03-14T16:00:18;13.6;40.8
78704;SHT31;68034;51.966;5.676;2023-03-14T16:02:48;13.6;38.7
78704;SHT31;68034;51.966;5.676;2023-03-14T16:05:17;13.5;38.0
78704;SHT31;68034;51.966;5.676;2023-03-14T16:07:47;13.4;39.0
78704;SHT31;68034;51.966;5.676;2023-03-14T16:10:16;13.4;41.1
78704;SHT31;68034;51.966;5.676;2023-03-14T16:12:45;13.3;39.5
78704;SHT31;68034;51.966;5.676;2023-03-14T16:15:14;13.3;40.0
78704;SHT31;68034;51.966;5.676;2023-03-14T16:17:42;13.3;40.7
78704;SHT31;68034;51.966;5.676;2023-03-14T16:20:11;13.2;40.6
78704;SHT31;68034;51.966;5.676;2023-03-14T16:22:42;13.2;40.0
78704;SHT31;68034;51.966;5.676;2023-03-14T16:25:11;13.2;39.4
78704;SHT31;68034;51.966;5.676;2023-03-14T16:27:40;13.1;41.0
78704;SHT31;68034;51.966;5.676;2023-03-14T16:30:11;13.1;39.8
78704;SHT31;68034;51.966;5.676;2023-03-14T16:32:40;13.1;37.7
78704;SHT31;68034;51.966;5.676;2023-03-14T16:35:09;13.0;39.2
78704;SHT31;68034;51.966;5.676;2023-03-14T16:37:38;12.9;38.1
78704;SHT31;68034;51.966;5.676;2023-03-14T16:40:08;12.9;39.2
78704;SHT31;68034;51.966;5.676;2023-03-14T16:42:36;12.8;41.4
78704;SHT31;68034;51.966;5.676;2023-03-14T16:45:09;12.8;42.4